METAR AND TAF INFORMATION
METAR FOR SVMI
ADDS - METARS form results

(2305 UTC 19 September 2019)
Data provider http://aviationweather.gov/metar/data/
 
METAR text: SVMI 192300Z 09003KT 90000 BNK016 -DZ 25/24 Q1010
Conditions at: SVMI (CARACAS/S. BOLIV, VE) observed 2300 UTC 19 September 2019
Temperature: 25.0°C (77°F)
Dewpoint: 24.0°C (75°F) [RH = 94%]
Pressure (altimeter): 29.82 inches Hg (1010.0 mb)
Winds: from the E (90 degrees) at 3 MPH (3 knots; 1.5 m/s)
Visibility: 0.00 miles (0.00 km)
Ceiling: unknown
Clouds: missing
Weather: -DZ  (light drizzle)

METAR text: SVMI 192212Z 00000KT 90000 BNK016 DZ 26/24 Q1010
Conditions at: SVMI (CARACAS/S. BOLIV, VE) observed 2212 UTC 19 September 2019
Temperature: 26.0°C (79°F)
Dewpoint: 24.0°C (75°F) [RH = 89%]
Pressure (altimeter): 29.82 inches Hg (1010.0 mb)
Winds: calm
Visibility: 0.00 miles (0.00 km)
Ceiling: unknown
Clouds: missing
Weather: DZ  (moderate drizzle)

Forecast for: SVMI (CARACAS/S. BOLIV, VE)
Text: TAF SVMI 192200Z 1918/2018 00000KT 9000 DZ BNK016 TX30/18Z TN24/06Z
Forecast period: 1800 UTC 19 September 2019 to 1800 UTC 20 September 2019
Forecast type: FROM: standard forecast or significant change
Winds: calm
Visibility: 6 miles (9 km)
Ceiling: unknown
Clouds: missing
Weather: DZ  (moderate drizzle)
Text: BECMG 1918/1922 00000KT 9000 DZ BNK016
Forecast period: 1800 UTC 19 September 2019 to 1800 UTC 20 September 2019
Forecast type: BECOMING: Conditions expected to become as follows by 2200 UTC 19 September 2019
Winds: calm
Visibility: 6 miles (9 km)
Ceiling: unknown
Clouds: missing
Weather: DZ  (moderate drizzle)

 AIRPORT MAP

 RUNWAY INFORMATION
Runway 09 Runway length 9930 ft Runway width 145 ft
Runway elevation 230 ft Runway displaced threshold 0 ft Runway heading 76
Runway 27 Runway length 9930 ft Runway width 145 ft
Runway elevation 101 ft Runway displaced threshold 0 ft Runway heading 256
Runway 10 Runway length 11483 ft Runway width 148 ft
Runway elevation 235 ft Runway displaced threshold 0 ft Runway heading 88
Runway 28 Runway length 11483 ft Runway width 148 ft
Runway elevation 147 ft Runway displaced threshold 0 ft Runway heading 268

 AIRPORT FREQUENCIES
Type APP Name MAIQUETIA Frequency 120.1 MHZ
Type ATIS Name ATIS Frequency 114.8 MHZ
Type CLD Name CLD Frequency 119.5 MHZ
Type DEP Name MAIQUETIA Frequency 118.4 MHZ
Type GND Name GND Frequency 121.9 MHZ
Type RDO Name MAIQUETIA Frequency 130.1 MHZ
Type TWR Name MAIQUETIA Frequency 118.1 MHZ

 AIRPORT NEAR NAVIGATION AIDS
Type VOR-DME Name Maiquetia Frequency 114800 KHZ
Type NDB Name Maiquetia Frequency 292 KHZ